Time,TemperatureF,DewpointF,PressureIn,WindDirection,WindDirectionDegrees,WindSpeedMPH,WindSpeedGustMPH,Humidity,HourlyPrecipIn,Conditions,Clouds,dailyrainin,SoftwareType,DateUTC
2013-04-05 00:00:00,38.7,33.0,29.53,North,353,3.6,3.6,80,0.04,,,0.51,VWS V14.00,2013-04-05 04:00:00,
2013-04-05 00:01:00,38.7,33.0,29.53,North,0,5.8,5.8,80,0.04,,,0.00,VWS V14.00,2013-04-05 04:01:00,
2013-04-05 00:06:00,38.7,33.3,29.53,NNE,24,0.0,3.6,81,0.04,,,0.00,VWS V14.00,2013-04-05 04:06:00,
2013-04-05 00:11:00,38.7,33.3,29.53,NNE,14,3.1,5.4,81,0.04,,,0.00,VWS V14.00,2013-04-05 04:11:00,
2013-04-05 00:17:00,38.7,33.3,29.53,NNE,16,4.9,5.4,81,0.04,,,0.00,VWS V14.00,2013-04-05 04:17:00,
2013-04-05 00:22:00,38.7,33.3,29.50,North,0,2.2,3.6,81,0.04,,,0.00,VWS V14.00,2013-04-05 04:22:00,
2013-04-05 00:27:00,38.7,33.3,29.50,ENE,58,3.1,3.1,81,0.04,,,0.00,VWS V14.00,2013-04-05 04:27:00,
2013-04-05 00:32:00,38.7,33.3,29.50,NW,310,0.0,0.0,81,0.04,,,0.00,VWS V14.00,2013-04-05 04:32:00,
2013-04-05 00:37:00,38.7,33.3,29.50,West,261,0.0,0.0,81,0.04,,,0.00,VWS V14.00,2013-04-05 04:37:00,
2013-04-05 00:42:00,38.8,33.5,29.50,SW,236,0.0,0.0,81,0.04,,,0.00,VWS V14.00,2013-04-05 04:42:00,
2013-04-05 00:47:00,38.8,33.8,29.50,NNW,335,0.0,0.0,82,0.00,,,0.00,VWS V14.00,2013-04-05 04:47:00,
2013-04-05 00:52:00,39.0,34.0,29.50,NW,325,0.0,0.0,82,0.00,,,0.00,VWS V14.00,2013-04-05 04:52:00,
2013-04-05 00:57:00,39.0,34.0,29.50,North,7,0.0,2.7,82,0.00,,,0.00,VWS V14.00,2013-04-05 04:57:00,
2013-04-05 01:02:00,39.2,34.2,29.50,NE,44,4.0,5.4,82,0.00,,,0.00,VWS V14.00,2013-04-05 05:02:00,
2013-04-05 01:07:00,39.2,34.2,29.50,NE,37,5.8,5.8,82,0.00,,,0.00,VWS V14.00,2013-04-05 05:07:00,
2013-04-05 01:12:00,39.2,34.2,29.47,North,357,4.0,4.0,82,0.00,,,0.00,VWS V14.00,2013-04-05 05:12:00,
2013-04-05 01:17:00,39.2,34.2,29.47,North,0,0.0,0.0,82,0.00,,,0.00,VWS V14.00,2013-04-05 05:17:00,
2013-04-05 01:22:00,39.4,34.3,29.47,NW,322,0.0,0.0,82,0.00,,,0.00,VWS V14.00,2013-04-05 05:22:00,
2013-04-05 01:27:00,39.4,34.3,29.47,NNE,26,0.0,2.7,82,0.00,,,0.00,VWS V14.00,2013-04-05 05:27:00,
2013-04-05 01:32:00,39.4,34.3,29.47,North,9,0.0,0.0,82,0.00,,,0.00,VWS V14.00,2013-04-05 05:32:00,
2013-04-05 01:37:00,39.6,34.5,29.47,NNW,331,0.0,2.7,82,0.00,,,0.00,VWS V14.00,2013-04-05 05:37:00,
2013-04-05 01:42:00,39.7,35.0,29.47,NNW,335,0.0,0.0,83,0.00,,,0.00,VWS V14.00,2013-04-05 05:42:00,
2013-04-05 01:47:00,39.7,35.0,29.47,NNW,340,2.2,2.7,83,0.00,,,0.00,VWS V14.00,2013-04-05 05:47:00,
2013-04-05 01:52:00,39.9,35.2,29.47,NNW,329,0.0,0.0,83,0.00,,,0.00,VWS V14.00,2013-04-05 05:52:00,
2013-04-05 01:57:00,39.9,35.2,29.47,WNW,303,0.0,0.0,83,0.00,,,0.00,VWS V14.00,2013-04-05 05:57:00,
2013-04-05 02:02:00,39.9,35.2,29.47,NNW,331,0.0,0.0,83,0.00,,,0.00,VWS V14.00,2013-04-05 06:02:00,
2013-04-05 02:07:00,39.9,35.2,29.47,North,357,0.0,0.0,83,0.00,,,0.00,VWS V14.00,2013-04-05 06:07:00,
2013-04-05 02:12:00,40.1,35.4,29.47,NNW,345,0.0,0.0,83,0.00,,,0.00,VWS V14.00,2013-04-05 06:12:00,
2013-04-05 02:17:00,40.1,35.4,29.47,North,357,0.0,0.0,83,0.04,,,0.04,VWS V14.00,2013-04-05 06:17:00,
2013-04-05 02:22:00,40.1,35.4,29.47,NNW,337,0.0,0.0,83,0.04,,,0.04,VWS V14.00,2013-04-05 06:22:00,
2013-04-05 02:27:00,40.3,35.5,29.47,NNW,341,0.0,0.0,83,0.04,,,0.04,VWS V14.00,2013-04-05 06:27:00,
2013-04-05 02:32:00,40.3,35.5,29.47,West,277,0.0,0.0,83,0.04,,,0.04,VWS V14.00,2013-04-05 06:32:00,
2013-04-05 02:37:00,40.5,36.0,29.47,NNE,18,0.0,0.0,84,0.04,,,0.04,VWS V14.00,2013-04-05 06:37:00,
2013-04-05 02:42:00,40.5,36.0,29.47,NW,325,0.0,0.0,84,0.04,,,0.04,VWS V14.00,2013-04-05 06:42:00,
2013-04-05 02:47:00,40.5,36.0,29.47,NW,305,0.0,0.0,84,0.04,,,0.04,VWS V14.00,2013-04-05 06:47:00,
2013-04-05 02:52:00,40.6,36.2,29.47,NE,51,0.0,2.7,84,0.04,,,0.04,VWS V14.00,2013-04-05 06:52:00,
2013-04-05 02:57:00,40.6,36.2,29.47,NW,325,0.0,0.0,84,0.04,,,0.04,VWS V14.00,2013-04-05 06:57:00,
2013-04-05 03:02:00,40.6,36.2,29.47,NW,325,0.0,0.0,84,0.04,,,0.04,VWS V14.00,2013-04-05 07:02:00,
2013-04-05 03:07:00,40.6,36.2,29.44,NW,312,0.0,0.0,84,0.04,,,0.04,VWS V14.00,2013-04-05 07:07:00,
2013-04-05 03:12:00,40.6,36.2,29.44,NNW,340,0.0,0.0,84,0.04,,,0.04,VWS V14.00,2013-04-05 07:12:00,
2013-04-05 03:17:00,40.6,36.2,29.44,NNW,340,0.0,0.0,84,0.00,,,0.04,VWS V14.00,2013-04-05 07:17:00,
2013-04-05 03:22:00,40.6,36.2,29.44,North,353,0.0,0.0,84,0.00,,,0.04,VWS V14.00,2013-04-05 07:22:00,
2013-04-05 03:27:00,40.6,36.2,29.44,NNW,342,0.0,0.0,84,0.00,,,0.04,VWS V14.00,2013-04-05 07:27:00,
2013-04-05 03:32:00,40.6,36.2,29.44,NNW,330,0.0,2.2,84,0.00,,,0.04,VWS V14.00,2013-04-05 07:32:00,
2013-04-05 03:37:00,40.6,36.2,29.47,WNW,286,0.0,0.0,84,0.00,,,0.04,VWS V14.00,2013-04-05 07:37:00,
2013-04-05 03:42:00,40.8,36.7,29.47,NNW,335,0.0,0.0,85,0.00,,,0.04,VWS V14.00,2013-04-05 07:42:00,
2013-04-05 03:47:00,40.8,36.7,29.47,NW,326,0.0,0.0,85,0.00,,,0.04,VWS V14.00,2013-04-05 07:47:00,
2013-04-05 03:52:00,40.8,36.7,29.47,NW,326,0.0,0.0,85,0.00,,,0.04,VWS V14.00,2013-04-05 07:52:00,
2013-04-05 03:57:00,41.0,36.8,29.47,NW,322,0.0,0.0,85,0.00,,,0.04,VWS V14.00,2013-04-05 07:57:00,
2013-04-05 04:02:00,41.0,36.8,29.47,WNW,297,0.0,0.0,85,0.00,,,0.04,VWS V14.00,2013-04-05 08:02:00,
2013-04-05 04:07:00,41.0,36.8,29.47,West,272,3.1,3.1,85,0.00,,,0.04,VWS V14.00,2013-04-05 08:07:00,
2013-04-05 04:12:00,41.0,36.8,29.47,NNW,335,0.0,0.0,85,0.00,,,0.04,VWS V14.00,2013-04-05 08:12:00,
2013-04-05 04:17:00,41.0,36.8,29.47,North,4,0.0,3.1,85,0.00,,,0.04,VWS V14.00,2013-04-05 08:17:00,
2013-04-05 04:22:00,40.8,36.7,29.47,West,264,2.2,2.2,85,0.00,,,0.04,VWS V14.00,2013-04-05 08:22:00,
2013-04-05 04:27:00,40.6,36.5,29.47,NW,322,0.0,0.0,85,0.00,,,0.04,VWS V14.00,2013-04-05 08:27:00,
2013-04-05 04:32:00,40.6,36.5,29.47,West,278,2.2,3.6,85,0.00,,,0.04,VWS V14.00,2013-04-05 08:32:00,
2013-04-05 04:37:00,40.5,36.3,29.47,West,279,0.0,0.0,85,0.00,,,0.04,VWS V14.00,2013-04-05 08:37:00,
2013-04-05 04:42:00,40.3,36.1,29.50,NW,323,0.0,0.0,85,0.00,,,0.04,VWS V14.00,2013-04-05 08:42:00,
2013-04-05 04:47:00,40.3,36.1,29.50,NNW,332,0.0,0.0,85,0.00,,,0.04,VWS V14.00,2013-04-05 08:47:00,
2013-04-05 04:52:00,40.1,36.0,29.50,North,357,0.0,0.0,85,0.00,,,0.04,VWS V14.00,2013-04-05 08:52:00,
2013-04-05 04:57:00,40.1,36.0,29.50,NNW,330,0.0,0.0,85,0.00,,,0.04,VWS V14.00,2013-04-05 08:57:00,
2013-04-05 05:02:00,39.9,35.8,29.50,NNW,327,0.0,2.2,85,0.00,,,0.04,VWS V14.00,2013-04-05 09:02:00,
2013-04-05 05:07:00,39.7,35.6,29.50,NNW,334,0.0,0.0,85,0.00,,,0.04,VWS V14.00,2013-04-05 09:07:00,
2013-04-05 05:12:00,39.7,35.6,29.50,West,261,0.0,0.0,85,0.00,,,0.04,VWS V14.00,2013-04-05 09:12:00,
2013-04-05 05:17:00,39.7,35.6,29.50,West,279,0.0,0.0,85,0.00,,,0.04,VWS V14.00,2013-04-05 09:17:00,
2013-04-05 05:22:00,39.7,35.9,29.50,WNW,295,0.0,0.0,86,0.00,,,0.04,VWS V14.00,2013-04-05 09:22:00,
2013-04-05 05:27:00,39.7,35.9,29.50,NNW,329,0.0,0.0,86,0.00,,,0.04,VWS V14.00,2013-04-05 09:27:00,
2013-04-05 05:32:00,39.6,35.4,29.50,NNW,328,2.2,2.2,85,0.00,,,0.04,VWS V14.00,2013-04-05 09:32:00,
2013-04-05 05:37:00,39.4,35.2,29.50,NW,313,0.0,2.7,85,0.00,,,0.04,VWS V14.00,2013-04-05 09:37:00,
2013-04-05 05:42:00,39.2,35.1,29.50,NW,318,0.0,0.0,85,0.00,,,0.04,VWS V14.00,2013-04-05 09:42:00,
2013-04-05 05:47:00,39.2,35.1,29.50,NNW,341,0.0,0.0,85,0.00,,,0.04,VWS V14.00,2013-04-05 09:47:00,
2013-04-05 05:52:00,39.0,34.9,29.47,NNW,342,0.0,0.0,85,0.00,,,0.04,VWS V14.00,2013-04-05 09:52:00,
2013-04-05 05:57:00,39.0,34.9,29.47,NW,315,0.0,0.0,85,0.00,,,0.04,VWS V14.00,2013-04-05 09:57:00,
2013-04-05 06:02:00,39.0,34.9,29.47,NNE,16,0.0,2.2,85,0.00,,,0.04,VWS V14.00,2013-04-05 10:02:00,
2013-04-05 06:07:00,38.8,34.7,29.47,North,357,0.0,0.0,85,0.00,,,0.04,VWS V14.00,2013-04-05 10:07:00,
2013-04-05 06:12:00,38.8,34.7,29.47,SSE,154,0.0,0.0,85,0.00,,,0.04,VWS V14.00,2013-04-05 10:12:00,
2013-04-05 06:17:00,38.8,34.7,29.47,NNW,329,0.0,0.0,85,0.00,,,0.04,VWS V14.00,2013-04-05 10:17:00,
2013-04-05 06:22:00,39.0,35.2,29.50,WNW,302,0.0,0.0,86,0.00,,,0.04,VWS V14.00,2013-04-05 10:22:00,
2013-04-05 06:27:00,39.0,35.2,29.50,NNW,336,0.0,0.0,86,0.00,,,0.04,VWS V14.00,2013-04-05 10:27:00,
2013-04-05 06:32:00,39.0,35.2,29.50,NNW,342,0.0,0.0,86,0.00,,,0.04,VWS V14.00,2013-04-05 10:32:00,
2013-04-05 06:37:00,38.8,35.0,29.50,NNW,340,2.7,2.7,86,0.00,,,0.04,VWS V14.00,2013-04-05 10:37:00,
2013-04-05 06:42:00,38.8,35.0,29.50,NNW,346,0.0,0.0,86,0.00,,,0.04,VWS V14.00,2013-04-05 10:42:00,
2013-04-05 06:47:00,38.8,35.0,29.50,NW,307,0.0,0.0,86,0.00,,,0.04,VWS V14.00,2013-04-05 10:47:00,
2013-04-05 06:52:00,38.8,34.7,29.50,NW,316,0.0,0.0,85,0.00,,,0.04,VWS V14.00,2013-04-05 10:52:00,
2013-04-05 06:57:00,38.8,34.7,29.50,WNW,286,0.0,0.0,85,0.00,,,0.04,VWS V14.00,2013-04-05 10:57:00,
2013-04-05 07:02:00,38.8,35.0,29.50,SW,215,0.0,0.0,86,0.00,,,0.04,VWS V14.00,2013-04-05 11:02:00,
2013-04-05 07:07:00,38.8,35.0,29.50,SW,215,0.0,0.0,86,0.00,,,0.04,VWS V14.00,2013-04-05 11:07:00,
2013-04-05 07:12:00,38.8,35.0,29.50,NNW,337,0.0,0.0,86,0.00,,,0.04,VWS V14.00,2013-04-05 11:12:00,
2013-04-05 07:17:00,38.8,35.0,29.50,NNW,337,0.0,0.0,86,0.00,,,0.04,VWS V14.00,2013-04-05 11:17:00,
2013-04-05 07:22:00,38.8,35.0,29.50,NNW,337,0.0,0.0,86,0.00,,,0.04,VWS V14.00,2013-04-05 11:22:00,
2013-04-05 07:27:00,39.0,35.2,29.50,North,353,0.0,0.0,86,0.00,,,0.04,VWS V14.00,2013-04-05 11:27:00,
2013-04-05 07:32:00,39.0,35.2,29.50,NNE,24,0.0,0.0,86,0.00,,,0.04,VWS V14.00,2013-04-05 11:32:00,
2013-04-05 07:37:00,39.2,35.4,29.50,NNW,330,2.2,2.2,86,0.00,,,0.04,VWS V14.00,2013-04-05 11:37:00,
2013-04-05 07:42:00,39.2,35.4,29.50,NNW,341,0.0,0.0,86,0.00,,,0.04,VWS V14.00,2013-04-05 11:42:00,
2013-04-05 07:47:00,39.2,35.4,29.50,WNW,288,0.0,0.0,86,0.00,,,0.04,VWS V14.00,2013-04-05 11:47:00,
2013-04-05 07:52:00,39.4,35.5,29.50,NNW,332,0.0,0.0,86,0.00,,,0.04,VWS V14.00,2013-04-05 11:52:00,
2013-04-05 07:57:00,39.4,35.5,29.50,NW,304,0.0,2.2,86,0.00,,,0.04,VWS V14.00,2013-04-05 11:57:00,
2013-04-05 08:02:00,39.4,35.5,29.50,NW,313,2.7,2.7,86,0.00,,,0.04,VWS V14.00,2013-04-05 12:02:00,
2013-04-05 08:07:00,39.6,35.7,29.50,NNW,334,0.0,0.0,86,0.00,,,0.04,VWS V14.00,2013-04-05 12:07:00,
2013-04-05 08:12:00,39.7,35.9,29.50,SW,216,3.1,3.1,86,0.00,,,0.04,VWS V14.00,2013-04-05 12:12:00,
2013-04-05 08:17:00,39.9,36.1,29.50,NNW,335,0.0,0.0,86,0.00,,,0.04,VWS V14.00,2013-04-05 12:17:00,
2013-04-05 08:22:00,39.9,36.1,29.50,WNW,303,0.0,2.7,86,0.00,,,0.04,VWS V14.00,2013-04-05 12:22:00,
2013-04-05 08:27:00,40.1,36.3,29.50,NW,310,0.0,0.0,86,0.00,,,0.04,VWS V14.00,2013-04-05 12:27:00,
2013-04-05 08:32:00,40.3,36.4,29.50,WNW,291,0.0,0.0,86,0.00,,,0.04,VWS V14.00,2013-04-05 12:32:00,
2013-04-05 08:37:00,40.5,36.6,29.53,NW,323,0.0,0.0,86,0.00,,,0.04,VWS V14.00,2013-04-05 12:37:00,
2013-04-05 08:42:00,40.5,36.6,29.53,NNW,332,0.0,2.2,86,0.00,,,0.04,VWS V14.00,2013-04-05 12:42:00,
2013-04-05 08:47:00,40.6,36.8,29.53,NNW,337,0.0,0.0,86,0.00,,,0.04,VWS V14.00,2013-04-05 12:47:00,
2013-04-05 08:52:00,40.6,36.8,29.53,WNW,291,0.0,0.0,86,0.00,,,0.04,VWS V14.00,2013-04-05 12:52:00,
2013-04-05 08:57:00,40.6,37.1,29.53,WNW,291,0.0,0.0,87,0.00,,,0.04,VWS V14.00,2013-04-05 12:57:00,
2013-04-05 09:02:00,40.8,37.0,29.53,WNW,291,0.0,0.0,86,0.00,,,0.04,VWS V14.00,2013-04-05 13:02:00,
2013-04-05 09:07:00,41.0,37.1,29.53,WNW,291,0.0,0.0,86,0.00,,,0.04,VWS V14.00,2013-04-05 13:07:00,
2013-04-05 09:12:00,41.2,37.6,29.53,WSW,250,0.0,0.0,87,0.00,,,0.04,VWS V14.00,2013-04-05 13:12:00,
2013-04-05 09:17:00,41.2,37.6,29.53,NW,322,0.0,0.0,87,0.00,,,0.04,VWS V14.00,2013-04-05 13:17:00,
2013-04-05 09:22:00,41.4,37.8,29.53,WNW,301,0.0,0.0,87,0.00,,,0.04,VWS V14.00,2013-04-05 13:22:00,
2013-04-05 09:28:00,41.5,38.0,29.53,West,265,0.0,0.0,87,0.00,,,0.04,VWS V14.00,2013-04-05 13:28:00,
2013-04-05 09:32:00,41.7,38.1,29.53,West,275,0.0,0.0,87,0.00,,,0.04,VWS V14.00,2013-04-05 13:32:00,
2013-04-05 09:37:00,41.7,38.1,29.56,NNW,333,3.1,3.1,87,0.00,,,0.04,VWS V14.00,2013-04-05 13:37:00,
2013-04-05 09:42:00,41.7,38.1,29.56,West,280,2.2,2.7,87,0.00,,,0.04,VWS V14.00,2013-04-05 13:42:00,
2013-04-05 09:47:00,42.1,38.5,29.56,NNW,335,0.0,0.0,87,0.00,,,0.04,VWS V14.00,2013-04-05 13:47:00,
2013-04-05 09:52:00,42.3,38.7,29.56,North,357,0.0,0.0,87,0.00,,,0.04,VWS V14.00,2013-04-05 13:52:00,
2013-04-05 09:57:00,42.4,38.8,29.56,North,353,0.0,0.0,87,0.00,,,0.04,VWS V14.00,2013-04-05 13:57:00,
2013-04-05 10:02:00,42.6,39.0,29.56,ENE,60,0.0,0.0,87,0.00,,,0.04,VWS V14.00,2013-04-05 14:02:00,
2013-04-05 10:07:00,42.8,38.9,29.56,NE,55,0.0,0.0,86,0.00,,,0.04,VWS V14.00,2013-04-05 14:07:00,
2013-04-05 10:12:00,43.0,39.1,29.56,NE,47,0.0,0.0,86,0.00,,,0.04,VWS V14.00,2013-04-05 14:12:00,
2013-04-05 10:18:00,43.2,39.3,29.56,NE,47,0.0,0.0,86,0.00,,,0.04,VWS V14.00,2013-04-05 14:18:00,
2013-04-05 10:22:00,43.2,39.3,29.56,NW,325,0.0,0.0,86,0.00,,,0.04,VWS V14.00,2013-04-05 14:22:00,
2013-04-05 10:27:00,43.3,39.1,29.56,West,262,0.0,0.0,85,0.00,,,0.04,VWS V14.00,2013-04-05 14:27:00,
2013-04-05 10:33:00,43.5,39.3,29.56,WNW,300,0.0,0.0,85,0.00,,,0.04,VWS V14.00,2013-04-05 14:33:00,
2013-04-05 10:38:00,43.7,39.2,29.56,WNW,283,4.0,4.0,84,0.00,,,0.04,VWS V14.00,2013-04-05 14:38:00,
2013-04-05 10:43:00,44.1,39.2,29.56,NW,318,0.0,0.0,83,0.00,,,0.04,VWS V14.00,2013-04-05 14:43:00,
2013-04-05 10:48:00,44.2,39.1,29.56,West,262,2.7,2.7,82,0.00,,,0.04,VWS V14.00,2013-04-05 14:48:00,
2013-04-05 10:53:00,44.2,38.8,29.56,WNW,288,0.0,0.0,81,0.00,,,0.04,VWS V14.00,2013-04-05 14:53:00,
2013-04-05 10:58:00,44.4,37.3,29.56,West,264,0.0,0.0,76,0.00,,,0.04,VWS V14.00,2013-04-05 14:58:00,
2013-04-05 11:03:00,44.6,37.2,29.56,WSW,254,2.2,3.6,75,0.00,,,0.04,VWS V14.00,2013-04-05 15:03:00,
2013-04-05 11:08:00,44.8,36.7,29.56,NNW,332,0.0,0.0,73,0.00,,,0.04,VWS V14.00,2013-04-05 15:08:00,
2013-04-05 11:13:00,45.3,36.8,29.56,NW,305,3.1,6.3,72,0.00,,,0.04,VWS V14.00,2013-04-05 15:13:00,
2013-04-05 11:18:00,46.0,38.2,29.56,NNW,334,3.6,4.0,74,0.00,,,0.04,VWS V14.00,2013-04-05 15:18:00,
2013-04-05 11:23:00,46.6,38.0,29.56,West,274,4.0,4.0,72,0.00,,,0.04,VWS V14.00,2013-04-05 15:23:00,
2013-04-05 11:28:00,47.1,38.2,29.56,West,267,0.0,0.0,71,0.00,,,0.04,VWS V14.00,2013-04-05 15:28:00,
2013-04-05 11:33:00,47.3,34.5,29.56,WNW,289,2.2,2.2,61,0.00,,,0.04,VWS V14.00,2013-04-05 15:33:00,
2013-04-05 11:38:00,48.0,35.2,29.56,West,261,3.1,3.1,61,0.00,,,0.04,VWS V14.00,2013-04-05 15:38:00,
2013-04-05 11:43:00,48.2,33.7,29.56,West,263,5.4,5.4,57,0.00,,,0.04,VWS V14.00,2013-04-05 15:43:00,
2013-04-05 11:48:00,48.7,33.8,29.56,NNE,24,4.9,4.9,56,0.00,,,0.04,VWS V14.00,2013-04-05 15:48:00,
2013-04-05 11:53:00,49.1,34.1,29.53,NE,37,4.0,4.0,56,0.00,,,0.04,VWS V14.00,2013-04-05 15:53:00,
2013-04-05 11:58:00,49.5,33.5,29.53,NNW,345,3.1,3.6,54,0.00,,,0.04,VWS V14.00,2013-04-05 15:58:00,
2013-04-05 12:03:00,49.8,31.4,29.53,NW,313,4.0,4.0,49,0.00,,,0.04,VWS V14.00,2013-04-05 16:03:00,
2013-04-05 12:08:00,50.4,33.4,29.53,West,263,0.0,0.0,52,0.00,,,0.04,VWS V14.00,2013-04-05 16:08:00,
2013-04-05 12:13:00,51.4,33.9,29.56,WSW,256,4.0,5.8,51,0.00,,,0.04,VWS V14.00,2013-04-05 16:13:00,
2013-04-05 12:18:00,51.8,32.8,29.56,WSW,241,2.7,2.7,48,0.00,,,0.04,VWS V14.00,2013-04-05 16:18:00,
2013-04-05 12:23:00,52.3,32.7,29.53,North,350,2.2,3.6,47,0.00,,,0.04,VWS V14.00,2013-04-05 16:23:00,
2013-04-05 12:28:00,52.9,32.7,29.53,North,353,2.7,2.7,46,0.00,,,0.04,VWS V14.00,2013-04-05 16:28:00,
2013-04-05 12:33:00,53.1,32.8,29.53,West,266,2.7,4.9,46,0.00,,,0.04,VWS V14.00,2013-04-05 16:33:00,
2013-04-05 12:38:00,53.4,33.2,29.53,North,11,0.0,4.0,46,0.00,,,0.04,VWS V14.00,2013-04-05 16:38:00,
2013-04-05 12:43:00,53.6,32.2,29.53,WSW,257,3.6,3.6,44,0.00,,,0.04,VWS V14.00,2013-04-05 16:43:00,
2013-04-05 12:48:00,53.8,31.8,29.53,East,85,2.7,3.1,43,0.00,,,0.04,VWS V14.00,2013-04-05 16:48:00,
2013-04-05 12:53:00,54.0,31.4,29.53,East,79,0.0,3.1,42,0.00,,,0.04,VWS V14.00,2013-04-05 16:53:00,
2013-04-05 12:58:00,54.3,31.7,29.53,NE,41,2.7,3.6,42,0.00,,,0.04,VWS V14.00,2013-04-05 16:58:00,
2013-04-05 13:03:00,54.7,32.1,29.53,West,275,0.0,0.0,42,0.00,,,0.04,VWS V14.00,2013-04-05 17:03:00,
2013-04-05 13:08:00,54.7,31.5,29.53,West,266,4.9,5.8,41,0.00,,,0.04,VWS V14.00,2013-04-05 17:08:00,
2013-04-05 13:13:00,55.2,32.0,29.53,WNW,302,2.7,3.1,41,0.00,,,0.04,VWS V14.00,2013-04-05 17:13:00,
2013-04-05 13:18:00,55.6,31.7,29.53,NNW,335,3.1,3.1,40,0.00,,,0.04,VWS V14.00,2013-04-05 17:18:00,
2013-04-05 13:23:00,55.6,31.7,29.50,WSW,246,0.0,0.0,40,0.00,,,0.04,VWS V14.00,2013-04-05 17:23:00,
2013-04-05 13:28:00,55.6,31.7,29.50,NW,308,2.7,3.1,40,0.00,,,0.04,VWS V14.00,2013-04-05 17:28:00,
2013-04-05 13:33:00,55.9,32.0,29.50,NNW,330,0.0,0.0,40,0.00,,,0.04,VWS V14.00,2013-04-05 17:33:00,
2013-04-05 13:38:00,56.3,32.3,29.53,NNE,26,0.0,0.0,40,0.00,,,0.04,VWS V14.00,2013-04-05 17:38:00,
2013-04-05 13:43:00,56.5,32.5,29.53,North,2,0.0,0.0,40,0.00,,,0.04,VWS V14.00,2013-04-05 17:43:00,
2013-04-05 13:48:00,56.8,32.8,29.53,ESE,118,0.0,0.0,40,0.00,,,0.04,VWS V14.00,2013-04-05 17:48:00,
2013-04-05 13:53:00,57.0,32.3,29.50,ENE,63,2.2,4.0,39,0.00,,,0.04,VWS V14.00,2013-04-05 17:53:00,
2013-04-05 13:58:00,57.2,31.8,29.50,North,6,0.0,0.0,38,0.00,,,0.04,VWS V14.00,2013-04-05 17:58:00,
2013-04-05 14:03:00,57.4,32.0,29.50,ENE,63,3.1,5.8,38,0.00,,,0.04,VWS V14.00,2013-04-05 18:03:00,
2013-04-05 14:08:00,57.6,31.5,29.53,North,357,0.0,0.0,37,0.00,,,0.04,VWS V14.00,2013-04-05 18:08:00,
2013-04-05 14:13:00,57.7,32.3,29.53,WNW,291,3.1,5.4,38,0.00,,,0.04,VWS V14.00,2013-04-05 18:13:00,
2013-04-05 14:18:00,57.9,32.5,29.53,SSW,209,0.0,0.0,38,0.00,,,0.04,VWS V14.00,2013-04-05 18:18:00,
2013-04-05 14:23:00,57.9,31.1,29.50,WNW,302,0.0,2.2,36,0.00,,,0.04,VWS V14.00,2013-04-05 18:23:00,
2013-04-05 14:28:00,57.7,31.7,29.50,NE,34,2.2,3.6,37,0.00,,,0.04,VWS V14.00,2013-04-05 18:28:00,
2013-04-05 14:33:00,57.9,31.8,29.50,East,91,0.0,0.0,37,0.00,,,0.04,VWS V14.00,2013-04-05 18:33:00,
2013-04-05 14:38:00,58.3,31.5,29.50,NNE,15,2.7,3.1,36,0.00,,,0.04,VWS V14.00,2013-04-05 18:38:00,
2013-04-05 14:43:00,58.3,31.5,29.50,NW,318,0.0,4.0,36,0.00,,,0.04,VWS V14.00,2013-04-05 18:43:00,
2013-04-05 14:48:00,58.5,31.6,29.50,WSW,242,3.1,3.1,36,0.00,,,0.04,VWS V14.00,2013-04-05 18:48:00,
2013-04-05 14:53:00,59.0,32.1,29.50,WSW,239,0.0,2.2,36,0.00,,,0.04,VWS V14.00,2013-04-05 18:53:00,
2013-04-05 14:58:00,59.4,32.4,29.50,NE,45,0.0,0.0,36,0.00,,,0.04,VWS V14.00,2013-04-05 18:58:00,
2013-04-05 15:03:00,59.9,32.9,29.50,WNW,300,2.2,2.2,36,0.00,,,0.04,VWS V14.00,2013-04-05 19:03:00,
2013-04-05 15:08:00,60.3,32.5,29.50,SE,137,3.1,3.1,35,0.00,,,0.04,VWS V14.00,2013-04-05 19:08:00,
2013-04-05 15:13:00,60.3,32.5,29.50,NNW,342,0.0,4.0,35,0.00,,,0.04,VWS V14.00,2013-04-05 19:13:00,
2013-04-05 15:18:00,60.4,32.7,29.50,NNE,23,3.1,3.1,35,0.00,,,0.04,VWS V14.00,2013-04-05 19:18:00,
2013-04-05 15:23:00,60.8,33.0,29.50,SSW,206,2.7,2.7,35,0.00,,,0.04,VWS V14.00,2013-04-05 19:23:00,
2013-04-05 15:28:00,61.5,33.6,29.50,ENE,75,0.0,0.0,35,0.00,,,0.04,VWS V14.00,2013-04-05 19:28:00,
2013-04-05 15:33:00,62.1,34.1,29.50,NNW,335,0.0,0.0,35,0.00,,,0.04,VWS V14.00,2013-04-05 19:33:00,
2013-04-05 15:38:00,62.4,34.4,29.47,SW,229,3.1,3.1,35,0.00,,,0.04,VWS V14.00,2013-04-05 19:38:00,
2013-04-05 15:43:00,63.1,34.3,29.47,NNW,341,2.7,2.7,34,0.00,,,0.04,VWS V14.00,2013-04-05 19:43:00,
2013-04-05 15:48:00,63.7,34.8,29.47,SSW,205,4.0,4.0,34,0.00,,,0.04,VWS V14.00,2013-04-05 19:48:00,
2013-04-05 15:53:00,63.9,35.0,29.47,NW,325,3.1,3.1,34,0.00,,,0.04,VWS V14.00,2013-04-05 19:53:00,
2013-04-05 15:58:00,64.0,35.1,29.47,West,259,4.9,4.9,34,0.00,,,0.04,VWS V14.00,2013-04-05 19:58:00,
2013-04-05 16:04:00,64.4,35.5,29.47,West,262,5.4,5.4,34,0.00,,,0.04,VWS V14.00,2013-04-05 20:04:00,
2013-04-05 16:09:00,64.9,35.9,29.47,WSW,249,7.6,7.6,34,0.00,,,0.04,VWS V14.00,2013-04-05 20:09:00,
2013-04-05 16:14:00,65.3,36.2,29.47,WSW,239,6.3,6.3,34,0.00,,,0.04,VWS V14.00,2013-04-05 20:14:00,
2013-04-05 16:19:00,65.1,36.1,29.47,NNW,338,2.7,3.1,34,0.00,,,0.04,VWS V14.00,2013-04-05 20:19:00,
2013-04-05 16:24:00,65.3,36.2,29.47,North,0,0.0,3.6,34,0.00,,,0.04,VWS V14.00,2013-04-05 20:24:00,
2013-04-05 16:29:00,65.5,36.4,29.47,South,188,0.0,0.0,34,0.00,,,0.04,VWS V14.00,2013-04-05 20:29:00,
2013-04-05 16:34:00,65.8,36.7,29.47,SW,230,3.1,3.1,34,0.00,,,0.04,VWS V14.00,2013-04-05 20:34:00,
2013-04-05 16:39:00,66.2,36.3,29.47,ENE,57,0.0,3.1,33,0.00,,,0.04,VWS V14.00,2013-04-05 20:39:00,
2013-04-05 16:44:00,66.4,36.4,29.47,NNW,339,0.0,0.0,33,0.00,,,0.04,VWS V14.00,2013-04-05 20:44:00,
2013-04-05 16:49:00,65.8,36.7,29.47,SSW,212,0.0,0.0,34,0.00,,,0.04,VWS V14.00,2013-04-05 20:49:00,
2013-04-05 16:54:00,65.3,36.2,29.47,NNW,345,0.0,0.0,34,0.00,,,0.04,VWS V14.00,2013-04-05 20:54:00,
2013-04-05 16:59:00,64.8,35.8,29.47,NNE,24,0.0,0.0,34,0.00,,,0.04,VWS V14.00,2013-04-05 20:59:00,
2013-04-05 17:04:00,65.3,36.2,29.47,West,262,0.0,0.0,34,0.00,,,0.04,VWS V14.00,2013-04-05 21:04:00,
2013-04-05 17:09:00,66.6,36.6,29.47,West,275,4.0,4.0,33,0.00,,,0.04,VWS V14.00,2013-04-05 21:09:00,
2013-04-05 17:14:00,67.8,37.7,29.47,WNW,294,0.0,0.0,33,0.00,,,0.04,VWS V14.00,2013-04-05 21:14:00,
2013-04-05 17:19:00,67.6,37.5,29.47,NNW,330,3.6,3.6,33,0.00,,,0.04,VWS V14.00,2013-04-05 21:19:00,
2013-04-05 17:24:00,66.7,36.8,29.47,NW,325,0.0,0.0,33,0.00,,,0.04,VWS V14.00,2013-04-05 21:24:00,
2013-04-05 17:29:00,64.8,35.8,29.47,WSW,252,0.0,3.6,34,0.00,,,0.04,VWS V14.00,2013-04-05 21:29:00,
2013-04-05 17:34:00,64.9,35.9,29.47,NNE,29,0.0,0.0,34,0.00,,,0.04,VWS V14.00,2013-04-05 21:34:00,
2013-04-05 17:39:00,65.5,36.4,29.47,WSW,254,5.4,5.4,34,0.00,,,0.04,VWS V14.00,2013-04-05 21:39:00,
2013-04-05 17:44:00,65.8,36.7,29.47,West,276,0.0,2.2,34,0.00,,,0.04,VWS V14.00,2013-04-05 21:44:00,
2013-04-05 17:49:00,65.8,36.7,29.47,North,0,0.0,0.0,34,0.00,,,0.04,VWS V14.00,2013-04-05 21:49:00,
2013-04-05 17:54:00,65.7,36.6,29.47,WNW,294,3.1,4.0,34,0.00,,,0.04,VWS V14.00,2013-04-05 21:54:00,
2013-04-05 17:59:00,65.1,36.1,29.47,ENE,70,0.0,0.0,34,0.00,,,0.04,VWS V14.00,2013-04-05 21:59:00,
2013-04-05 18:04:00,64.2,35.3,29.47,West,269,0.0,0.0,34,0.00,,,0.04,VWS V14.00,2013-04-05 22:04:00,
2013-04-05 18:09:00,63.3,34.5,29.50,WSW,254,3.1,3.1,34,0.00,,,0.04,VWS V14.00,2013-04-05 22:09:00,
2013-04-05 18:14:00,63.0,34.2,29.50,NW,307,0.0,0.0,34,0.00,,,0.04,VWS V14.00,2013-04-05 22:14:00,
2013-04-05 18:20:00,62.4,33.7,29.50,North,357,0.0,0.0,34,0.00,,,0.04,VWS V14.00,2013-04-05 22:20:00,
2013-04-05 18:25:00,62.2,33.5,29.50,North,2,0.0,0.0,34,0.00,,,0.04,VWS V14.00,2013-04-05 22:25:00,
2013-04-05 18:30:00,62.1,33.4,29.50,WSW,239,3.1,3.1,34,0.00,,,0.04,VWS V14.00,2013-04-05 22:30:00,
2013-04-05 18:35:00,61.9,33.2,29.50,WSW,246,0.0,0.0,34,0.00,,,0.04,VWS V14.00,2013-04-05 22:35:00,
2013-04-05 18:40:00,61.7,33.1,29.50,WSW,245,2.7,2.7,34,0.00,,,0.04,VWS V14.00,2013-04-05 22:40:00,
2013-04-05 18:45:00,61.5,32.9,29.50,NNW,327,0.0,0.0,34,0.00,,,0.04,VWS V14.00,2013-04-05 22:45:00,
2013-04-05 18:50:00,61.3,32.8,29.50,NNW,327,0.0,0.0,34,0.00,,,0.04,VWS V14.00,2013-04-05 22:50:00,
2013-04-05 18:55:00,61.2,32.6,29.50,NNW,327,0.0,0.0,34,0.00,,,0.04,VWS V14.00,2013-04-05 22:55:00,
2013-04-05 19:00:00,61.0,33.2,29.50,NNW,327,0.0,0.0,35,0.00,,,0.04,VWS V14.00,2013-04-05 23:00:00,
2013-04-05 19:05:00,60.6,32.8,29.50,NNW,327,0.0,0.0,35,0.00,,,0.04,VWS V14.00,2013-04-05 23:05:00,
2013-04-05 19:10:00,60.3,32.5,29.50,NNW,327,0.0,0.0,35,0.00,,,0.04,VWS V14.00,2013-04-05 23:10:00,
2013-04-05 19:15:00,59.7,32.0,29.50,NNW,327,0.0,0.0,35,0.00,,,0.04,VWS V14.00,2013-04-05 23:15:00,
2013-04-05 19:20:00,59.4,31.7,29.50,NNW,327,0.0,0.0,35,0.00,,,0.04,VWS V14.00,2013-04-05 23:20:00,
2013-04-05 19:25:00,58.8,32.0,29.50,NNW,327,0.0,0.0,36,0.00,,,0.04,VWS V14.00,2013-04-05 23:25:00,
2013-04-05 19:30:00,58.3,31.5,29.50,NNW,327,0.0,0.0,36,0.00,,,0.04,VWS V14.00,2013-04-05 23:30:00,
2013-04-05 19:35:00,57.7,31.7,29.50,NNW,327,0.0,0.0,37,0.00,,,0.04,VWS V14.00,2013-04-05 23:35:00,
2013-04-05 19:40:00,57.0,31.0,29.50,NNW,327,0.0,0.0,37,0.00,,,0.04,VWS V14.00,2013-04-05 23:40:00,
2013-04-05 19:45:00,56.5,30.5,29.50,NNW,327,0.0,0.0,37,0.00,,,0.04,VWS V14.00,2013-04-05 23:45:00,
2013-04-05 19:50:00,55.9,30.7,29.50,NNW,327,0.0,0.0,38,0.00,,,0.04,VWS V14.00,2013-04-05 23:50:00,
2013-04-05 19:55:00,55.2,30.7,29.53,NNW,327,0.0,0.0,39,0.00,,,0.04,VWS V14.00,2013-04-05 23:55:00,
2013-04-05 20:00:00,54.9,30.4,29.53,NNW,327,0.0,0.0,39,0.00,,,0.04,VWS V14.00,2013-04-06 00:00:00,
2013-04-05 20:05:00,54.0,30.2,29.53,NNW,327,0.0,0.0,40,0.00,,,0.04,VWS V14.00,2013-04-06 00:05:00,
2013-04-05 20:10:00,53.4,30.3,29.53,NNW,327,0.0,0.0,41,0.00,,,0.04,VWS V14.00,2013-04-06 00:10:00,
2013-04-05 20:15:00,52.9,29.8,29.53,NNW,327,0.0,0.0,41,0.00,,,0.04,VWS V14.00,2013-04-06 00:15:00,
2013-04-05 20:20:00,52.3,30.0,29.53,NNW,327,0.0,0.0,42,0.00,,,0.04,VWS V14.00,2013-04-06 00:20:00,
2013-04-05 20:25:00,52.0,30.2,29.53,NNW,327,0.0,0.0,43,0.00,,,0.04,VWS V14.00,2013-04-06 00:25:00,
2013-04-05 20:30:00,51.3,30.1,29.53,NNW,327,0.0,0.0,44,0.00,,,0.04,VWS V14.00,2013-04-06 00:30:00,
2013-04-05 20:35:00,50.7,30.2,29.53,NNW,327,0.0,0.0,45,0.00,,,0.04,VWS V14.00,2013-04-06 00:35:00,
2013-04-05 20:40:00,50.2,30.2,29.53,NNW,327,0.0,0.0,46,0.00,,,0.04,VWS V14.00,2013-04-06 00:40:00,
2013-04-05 20:45:00,49.8,30.4,29.53,NNW,327,0.0,0.0,47,0.00,,,0.04,VWS V14.00,2013-04-06 00:45:00,
2013-04-05 20:50:00,49.5,30.1,29.53,NNW,327,0.0,0.0,47,0.00,,,0.04,VWS V14.00,2013-04-06 00:50:00,
2013-04-05 20:55:00,49.3,30.4,29.56,NNW,327,0.0,0.0,48,0.00,,,0.04,VWS V14.00,2013-04-06 00:55:00,
2013-04-05 21:00:00,48.7,29.9,29.56,NNW,327,0.0,0.0,48,0.00,,,0.04,VWS V14.00,2013-04-06 01:00:00,
2013-04-05 21:05:00,48.2,29.5,29.56,NNW,327,0.0,0.0,48,0.00,,,0.04,VWS V14.00,2013-04-06 01:05:00,
2013-04-05 21:10:00,47.7,29.5,29.56,NNW,327,0.0,0.0,49,0.00,,,0.04,VWS V14.00,2013-04-06 01:10:00,
2013-04-05 21:15:00,47.5,29.8,29.56,NNW,327,0.0,0.0,50,0.00,,,0.04,VWS V14.00,2013-04-06 01:15:00,
2013-04-05 21:20:00,47.1,29.5,29.56,NNW,327,0.0,0.0,50,0.00,,,0.04,VWS V14.00,2013-04-06 01:20:00,
2013-04-05 21:25:00,46.9,29.8,29.56,NNW,327,0.0,0.0,51,0.00,,,0.04,VWS V14.00,2013-04-06 01:25:00,
2013-04-05 21:30:00,46.6,29.4,29.56,NNW,327,0.0,0.0,51,0.00,,,0.04,VWS V14.00,2013-04-06 01:30:00,
2013-04-05 21:35:00,46.2,29.6,29.56,NNW,327,0.0,0.0,52,0.00,,,0.04,VWS V14.00,2013-04-06 01:35:00,
2013-04-05 21:40:00,45.9,29.2,29.59,NNW,327,0.0,0.0,52,0.00,,,0.04,VWS V14.00,2013-04-06 01:40:00,
2013-04-05 21:45:00,45.7,29.5,29.59,NNW,327,0.0,0.0,53,0.00,,,0.04,VWS V14.00,2013-04-06 01:45:00,
2013-04-05 21:50:00,45.5,29.4,29.59,NNW,327,0.0,0.0,53,0.00,,,0.04,VWS V14.00,2013-04-06 01:50:00,
2013-04-05 21:55:00,45.1,29.0,29.59,NNW,327,0.0,0.0,53,0.00,,,0.04,VWS V14.00,2013-04-06 01:55:00,
2013-04-05 22:00:00,44.8,28.7,29.59,NNW,327,0.0,0.0,53,0.00,,,0.04,VWS V14.00,2013-04-06 02:00:00,
2013-04-05 22:05:00,44.4,28.8,29.59,NNW,327,0.0,0.0,54,0.00,,,0.04,VWS V14.00,2013-04-06 02:05:00,
2013-04-05 22:10:00,44.2,28.7,29.59,NNW,327,0.0,0.0,54,0.00,,,0.04,VWS V14.00,2013-04-06 02:10:00,
2013-04-05 22:15:00,44.1,28.9,29.59,NNW,327,0.0,0.0,55,0.00,,,0.04,VWS V14.00,2013-04-06 02:15:00,
2013-04-05 22:20:00,43.7,28.6,29.59,NNW,327,0.0,0.0,55,0.00,,,0.04,VWS V14.00,2013-04-06 02:20:00,
2013-04-05 22:25:00,43.5,28.4,29.59,NNW,327,0.0,0.0,55,0.00,,,0.04,VWS V14.00,2013-04-06 02:25:00,
2013-04-05 22:30:00,43.3,28.7,29.59,NNW,327,0.0,0.0,56,0.00,,,0.04,VWS V14.00,2013-04-06 02:30:00,
2013-04-05 22:35:00,43.3,28.7,29.59,NNW,327,0.0,0.0,56,0.00,,,0.04,VWS V14.00,2013-04-06 02:35:00,
2013-04-05 22:41:00,43.0,28.4,29.59,NNW,327,0.0,0.0,56,0.00,,,0.04,VWS V14.00,2013-04-06 02:41:00,
2013-04-05 22:46:00,42.8,28.6,29.59,NNW,327,0.0,0.0,57,0.00,,,0.04,VWS V14.00,2013-04-06 02:46:00,
2013-04-05 22:51:00,42.6,28.5,29.59,NNW,327,0.0,0.0,57,0.00,,,0.04,VWS V14.00,2013-04-06 02:51:00,
2013-04-05 22:56:00,42.4,28.7,29.59,NNW,327,0.0,0.0,58,0.00,,,0.04,VWS V14.00,2013-04-06 02:56:00,
2013-04-05 23:01:00,42.4,28.7,29.59,NNW,327,0.0,0.0,58,0.00,,,0.04,VWS V14.00,2013-04-06 03:01:00,
2013-04-05 23:06:00,41.9,27.8,29.59,NNW,327,0.0,0.0,57,0.00,,,0.04,VWS V14.00,2013-04-06 03:06:00,
2013-04-05 23:11:00,41.7,28.0,29.59,NNW,327,0.0,0.0,58,0.00,,,0.04,VWS V14.00,2013-04-06 03:11:00,
2013-04-05 23:16:00,41.5,27.9,29.59,NNW,327,0.0,0.0,58,0.00,,,0.04,VWS V14.00,2013-04-06 03:16:00,
2013-04-05 23:21:00,41.4,28.1,29.59,NNW,327,0.0,0.0,59,0.00,,,0.04,VWS V14.00,2013-04-06 03:21:00,
2013-04-05 23:26:00,41.0,28.2,29.59,NNW,327,0.0,0.0,60,0.00,,,0.04,VWS V14.00,2013-04-06 03:26:00,
2013-04-05 23:31:00,41.0,28.6,29.59,NNW,327,0.0,0.0,61,0.00,,,0.04,VWS V14.00,2013-04-06 03:31:00,
2013-04-05 23:36:00,40.8,28.8,29.59,NNW,327,0.0,0.0,62,0.00,,,0.04,VWS V14.00,2013-04-06 03:36:00,
2013-04-05 23:41:00,40.8,29.2,29.59,NNW,327,0.0,0.0,63,0.00,,,0.04,VWS V14.00,2013-04-06 03:41:00,
2013-04-05 23:47:00,40.8,29.2,29.59,NNW,327,0.0,0.0,63,0.00,,,0.04,VWS V14.00,2013-04-06 03:47:00,
2013-04-05 23:52:00,40.6,29.0,29.59,NNW,327,0.0,0.0,63,0.00,,,0.04,VWS V14.00,2013-04-06 03:52:00,
2013-04-05 23:57:00,40.6,29.4,29.59,NNW,327,0.0,0.0,64,0.00,,,0.04,VWS V14.00,2013-04-06 03:57:00,